Denver, Colorado
Traffic Map
Current Weather Conditions
Denver, Colorado
Few Clouds
Few Clouds

Feels Like: 4°
Wind Chill: Ceiling: Unl
Heat Index: Visibility: 60mi
Dew Point: -11° Wind: 5mph
Humidity: 29% Direction: 310° (NW)
Pressure: 29.66in Gusts: 0mph
Raw Report DataKBJC 281345Z 31004KT 60SM FEW180 06/M11 A2966
Traffic Incident Summary
Active as of:
Severity:
Category:
InformationThere was an issue retrieving the traffic information for this location. Please try a different location or try again shortly.
Advertisements
Track Severe Weather on mobile